Time;durP1;ratioP1;P1;durP2;ratioP2;P2;SDS_P1;SDS_P2;PMS_P1;PMS_P2;Temp;Humidity;BMP_temperature;BMP_pressure;BME280_temperature;BME280_humidity;BME280_pressure;Samples;Min_cycle;Max_cycle;Signal;HPM_P1;HPM_P2
2021/04/15 00:00:34;;;;;;;6.13;4.70;;;;;;;18.88;42.92;100065.66;2054658;28;20046;-66
2021/04/15 00:01:39;;;;;;;4.80;3.80;;;;;;;18.85;42.79;100058.63;2047010;28;20058;-66
2021/04/15 00:02:39;;;;;;;4.68;3.85;;;;;;;18.89;42.82;100064.66;2051383;28;20135;-65
2021/04/15 00:03:40;;;;;;;4.87;4.33;;;;;;;18.90;42.65;100069.13;2054154;28;20070;-66
2021/04/15 00:04:40;;;;;;;5.30;4.10;;;;;;;18.90;42.77;100069.13;2050896;28;20035;-66
2021/04/15 00:05:42;;;;;;;5.60;4.47;;;;;;;18.89;42.70;100062.81;2048480;28;20019;-66
2021/04/15 00:06:43;;;;;;;8.38;4.03;;;;;;;18.90;42.72;100067.25;2054649;28;20451;-66
2021/04/15 00:07:44;;;;;;;5.55;3.88;;;;;;;18.91;42.80;100059.91;2054220;28;20058;-66
2021/04/15 00:08:46;;;;;;;4.70;3.80;;;;;;;18.90;42.70;100069.13;2055888;28;20085;-66
2021/04/15 00:09:46;;;;;;;5.63;4.10;;;;;;;18.89;42.64;100067.38;2055400;28;20030;-66
2021/04/15 00:10:51;;;;;;;5.30;4.43;;;;;;;18.90;42.82;100064.50;2054389;28;20034;-66
2021/04/15 00:11:52;;;;;;;4.78;3.72;;;;;;;18.90;42.72;100063.66;2054818;28;20494;-66
2021/04/15 00:12:53;;;;;;;4.90;4.17;;;;;;;18.89;42.73;100061.91;2051429;28;20736;-66
2021/04/15 00:13:55;;;;;;;6.23;3.97;;;;;;;18.87;42.84;100062.09;2055639;28;20031;-66
2021/04/15 00:14:56;;;;;;;6.78;4.45;;;;;;;18.87;42.65;100058.50;2053384;28;20026;-66
2021/04/15 00:15:57;;;;;;;6.00;4.43;;;;;;;18.86;42.76;100060.34;2054997;28;20067;-66
2021/04/15 00:16:57;;;;;;;6.25;4.38;;;;;;;18.87;42.73;100053.03;2054999;28;20031;-66
2021/04/15 00:17:58;;;;;;;4.83;3.67;;;;;;;18.87;42.88;100050.31;2052980;28;20090;-66
2021/04/15 00:18:59;;;;;;;4.30;3.90;;;;;;;18.88;42.77;100063.78;2055886;28;20030;-66
2021/04/15 00:20:00;;;;;;;4.70;3.78;;;;;;;18.87;42.68;100050.31;2054362;28;20066;-66
2021/04/15 00:21:02;;;;;;;5.43;4.17;;;;;;;18.89;42.89;100056.47;2054961;28;20046;-66
2021/04/15 00:22:03;;;;;;;5.68;4.45;;;;;;;18.90;42.76;100058.19;2054040;28;20046;-66
2021/04/15 00:23:03;;;;;;;6.23;4.70;;;;;;;18.88;42.80;100055.59;2053219;28;20061;-66
2021/04/15 00:24:05;;;;;;;6.77;5.17;;;;;;;18.91;42.72;100048.97;2055231;28;20030;-66
2021/04/15 00:25:06;;;;;;;4.85;4.18;;;;;;;18.91;42.76;100051.72;2055492;28;20039;-66
2021/04/15 00:26:12;;;;;;;7.25;4.30;;;;;;;18.90;42.85;100055.47;2055427;28;20847;-66
2021/04/15 00:27:13;;;;;;;4.68;3.92;;;;;;;18.92;42.79;100045.25;2054832;28;20490;-66
2021/04/15 00:28:14;;;;;;;4.60;3.97;;;;;;;18.92;42.79;100045.25;2055472;28;20592;-65
2021/04/15 00:29:14;;;;;;;5.23;4.17;;;;;;;18.92;42.80;100050.72;2055208;28;20110;-69
2021/04/15 00:30:16;;;;;;;5.63;3.93;;;;;;;18.92;42.77;100048.84;2055646;28;20262;-66
2021/04/15 00:31:17;;;;;;;4.93;3.95;;;;;;;18.93;42.70;100039.63;2051352;28;20026;-66
2021/04/15 00:32:17;;;;;;;6.13;4.33;;;;;;;18.92;42.73;100039.78;2055062;28;20039;-66
2021/04/15 00:33:19;;;;;;;6.83;4.80;;;;;;;18.92;42.78;100037.06;2055635;28;20034;-66
2021/04/15 00:34:19;;;;;;;5.50;4.22;;;;;;;18.93;42.83;100041.50;2053231;28;20027;-66
2021/04/15 00:35:20;;;;;;;5.70;4.10;;;;;;;18.92;42.76;100040.66;2055850;28;20042;-66
2021/04/15 00:36:21;;;;;;;6.30;3.97;;;;;;;18.93;42.76;100038.78;2054206;28;20062;-66
2021/04/15 00:37:21;;;;;;;6.03;3.40;;;;;;;18.94;42.57;100043.25;2054428;28;20282;-66
2021/04/15 00:38:24;;;;;;;5.20;4.37;;;;;;;18.95;42.68;100039.47;2055569;28;20022;-66
2021/04/15 00:39:24;;;;;;;4.90;4.05;;;;;;;18.95;42.75;100044.94;2054589;28;20030;-66
2021/04/15 00:40:26;;;;;;;4.77;4.00;;;;;;;18.95;42.73;100039.47;2062525;28;20541;-66
2021/04/15 00:41:26;;;;;;;4.97;4.07;;;;;;;18.93;42.66;100030.56;2061926;28;20080;-66
2021/04/15 00:42:27;;;;;;;5.73;4.23;;;;;;;18.94;42.66;100037.78;2047587;28;20035;-66
2021/04/15 00:43:30;;;;;;;6.30;4.50;;;;;;;18.94;42.66;100040.50;2047671;28;20035;-66
2021/04/15 00:44:31;;;;;;;5.43;3.97;;;;;;;18.94;42.60;100035.91;2054290;28;20031;-66
2021/04/15 00:45:40;;;;;;;6.77;3.67;;;;;;;18.93;42.60;100036.88;2053260;28;20039;-66
2021/04/15 00:46:57;;;;;;;3.95;3.55;;;;;;;18.92;42.67;100035.19;2052534;28;20436;-66
2021/04/15 00:48:16;;;;;;;4.57;3.80;;;;;;;18.92;42.84;100032.44;2055023;28;20092;-65
2021/04/15 00:49:39;;;;;;;4.88;4.05;;;;;;;18.91;42.70;100032.59;2054320;28;20031;-66
2021/04/15 00:50:54;;;;;;;5.25;3.72;;;;;;;18.91;42.60;100032.59;2055227;28;20073;-66
2021/04/15 00:51:59;;;;;;;5.72;4.10;;;;;;;18.90;42.81;100031.72;2051662;28;20034;-66
2021/04/15 00:53:05;;;;;;;5.57;4.63;;;;;;;18.91;42.73;100032.59;2048241;28;20042;-66
2021/04/15 00:54:11;;;;;;;5.22;3.80;;;;;;;18.90;42.84;100034.47;2054343;28;20031;-66
2021/04/15 00:55:16;;;;;;;6.70;4.55;;;;;;;18.89;42.73;100029.16;2054190;28;20195;-66
2021/04/15 00:56:17;;;;;;;5.28;3.50;;;;;;;18.89;42.87;100024.56;2054340;28;20031;-66
2021/04/15 00:57:40;;;;;;;5.70;4.07;;;;;;;18.89;42.81;100019.09;2054903;28;20033;-66
2021/04/15 00:58:41;;;;;;;4.93;3.75;;;;;;;18.87;42.95;100018.38;2054374;28;20042;-66
2021/04/15 00:59:41;;;;;;;5.20;3.75;;;;;;;18.88;42.80;100021.97;2055394;28;20034;-66
2021/04/15 01:00:42;;;;;;;4.73;3.60;;;;;;;18.90;42.84;100019.97;2052476;28;20158;-66
2021/04/15 01:01:43;;;;;;;4.43;3.70;;;;;;;18.88;42.67;100020.09;2053292;28;20840;-66
2021/04/15 01:02:44;;;;;;;4.30;3.63;;;;;;;18.89;42.81;100027.28;2054380;28;20130;-66
2021/04/15 01:03:44;;;;;;;5.50;4.07;;;;;;;18.88;42.91;100021.97;2054630;28;20101;-65
2021/04/15 01:04:53;;;;;;;4.13;3.33;;;;;;;18.88;42.89;100027.44;2055259;28;20051;-65
2021/04/15 01:05:55;;;;;;;6.13;3.75;;;;;;;18.88;42.81;100019.25;2053506;28;20031;-65
2021/04/15 01:06:55;;;;;;;;;;;;;;;18.82;42.91;100021.56;2055612;28;20375;-65
2021/04/15 01:07:56;;;;;;;6.15;3.67;;;;;;;18.83;42.87;100019.69;2054055;28;20154;-65
2021/04/15 01:08:59;;;;;;;7.10;4.17;;;;;;;18.84;42.97;100021.44;2054993;28;20097;-65
2021/04/15 01:09:59;;;;;;;4.10;3.45;;;;;;;18.85;42.77;100017.69;2054904;28;20054;-65
2021/04/15 01:11:13;;;;;;;4.77;3.67;;;;;;;18.81;42.83;100017.13;2052381;28;20027;-65
2021/04/15 01:12:45;;;;;;;4.90;3.55;;;;;;;18.81;42.85;100017.13;2047195;28;20038;-65
2021/04/15 01:13:52;;;;;;;4.97;4.05;;;;;;;18.82;42.93;100021.56;2039117;28;20119;-65
2021/04/15 01:15:08;;;;;;;4.57;3.40;;;;;;;18.82;42.80;100020.72;2054596;28;20062;-65
2021/04/15 01:16:31;;;;;;;4.47;3.50;;;;;;;18.82;42.81;100018.84;2054443;28;20042;-65
2021/04/15 01:17:55;;;;;;;4.40;3.58;;;;;;;18.80;42.84;100022.72;2047476;28;20037;-65
2021/04/15 01:19:15;;;;;;;5.45;3.60;;;;;;;18.80;43.11;100014.53;2046853;28;20046;-65
2021/04/15 01:20:44;;;;;;;4.70;3.75;;;;;;;18.82;42.99;100017.97;2052450;28;20272;-64
2021/04/15 01:22:06;;;;;;;4.35;3.30;;;;;;;18.83;43.05;100015.09;2053247;28;20041;-65
2021/04/15 01:23:29;;;;;;;5.03;3.43;;;;;;;18.81;43.04;100025.31;2054584;28;20025;-65
2021/04/15 01:24:38;;;;;;;4.32;3.45;;;;;;;18.82;43.06;100018.84;2054699;28;20289;-65
2021/04/15 01:25:41;;;;;;;5.40;3.78;;;;;;;18.84;43.08;100021.44;2054334;28;20398;-65
2021/04/15 01:27:04;;;;;;;4.70;3.90;;;;;;;18.85;43.00;100029.44;2054251;28;20027;-65
2021/04/15 01:28:09;;;;;;;5.57;3.47;;;;;;;18.85;42.81;100024.00;2050873;28;20206;-65
2021/04/15 01:29:28;;;;;;;5.63;3.42;;;;;;;18.88;43.00;100019.25;2053548;28;20045;-65
2021/04/15 01:30:36;;;;;;;4.47;3.28;;;;;;;18.87;42.82;100018.38;2054585;28;20042;-65
2021/04/15 01:31:50;;;;;;;5.32;3.78;;;;;;;18.87;42.70;100021.13;2053824;28;20182;-64
2021/04/15 01:33:26;;;;;;;4.20;3.45;;;;;;;18.87;42.76;100014.81;2053576;28;20034;-65
2021/04/15 01:35:01;;;;;;;4.82;3.63;;;;;;;18.87;42.96;100020.25;2039175;28;20027;-65
2021/04/15 01:36:07;;;;;;;4.75;3.40;;;;;;;18.88;42.86;100016.50;2053475;28;20113;-65
2021/04/15 01:37:32;;;;;;;6.88;3.95;;;;;;;18.89;42.80;100015.50;2047233;28;20038;-65
2021/04/15 01:38:42;;;;;;;4.03;3.15;;;;;;;18.88;42.94;100017.38;2052528;28;20058;-65
2021/04/15 01:39:48;;;;;;;4.70;3.42;;;;;;;18.88;42.82;100024.69;2052992;28;20405;-65
2021/04/15 01:41:03;;;;;;;4.50;3.80;;;;;;;18.89;42.74;100018.22;2055146;28;20042;-65
2021/04/15 01:42:11;;;;;;;4.80;3.72;;;;;;;18.89;42.85;100019.09;2053588;28;20041;-65
2021/04/15 01:43:35;;;;;;;5.22;3.65;;;;;;;18.90;42.87;100017.22;2051658;28;20069;-65
2021/04/15 01:44:43;;;;;;;5.10;4.18;;;;;;;18.89;42.67;100015.50;2054560;28;20401;-64
2021/04/15 01:45:46;;;;;;;4.88;3.40;;;;;;;18.90;42.68;100011.75;2047297;29;20794;-65
2021/04/15 01:46:48;;;;;;;4.60;3.38;;;;;;;18.91;42.95;100013.47;2050829;28;20027;-65
2021/04/15 01:47:56;;;;;;;4.35;3.33;;;;;;;18.90;42.77;100014.50;2055144;28;20082;-65
2021/04/15 01:48:59;;;;;;;5.10;3.20;;;;;;;18.90;42.72;100011.75;2053450;28;20027;-65
2021/04/15 01:50:25;;;;;;;4.63;3.72;;;;;;;18.88;42.84;100005.59;2054220;28;20119;-65
2021/04/15 01:51:31;;;;;;;4.55;3.15;;;;;;;18.88;42.64;100014.63;2044811;28;20098;-64
2021/04/15 01:52:35;;;;;;;4.82;3.58;;;;;;;18.90;42.84;100006.31;2047180;28;20042;-66
2021/04/15 01:53:45;;;;;;;5.53;3.58;;;;;;;18.89;42.94;100007.28;2050898;28;20029;-65
2021/04/15 01:55:08;;;;;;;4.30;3.45;;;;;;;18.85;42.72;100007.59;2055163;28;20051;-66
2021/04/15 01:56:18;;;;;;;4.53;3.28;;;;;;;18.86;42.90;100008.47;2055081;28;20431;-66
2021/04/15 01:57:30;;;;;;;4.93;3.78;;;;;;;18.87;42.88;100004.72;2054786;28;20097;-66
2021/04/15 01:58:43;;;;;;;6.30;3.58;;;;;;;18.87;42.80;100003.88;2053167;28;20403;-66
2021/04/15 01:59:48;;;;;;;6.18;3.25;;;;;;;18.87;42.73;100009.34;2055355;28;20026;-66
2021/04/15 02:00:54;;;;;;;4.45;3.38;;;;;;;18.86;42.91;100003.00;2054464;28;20053;-66
2021/04/15 02:02:01;;;;;;;4.63;3.60;;;;;;;18.88;42.84;100011.06;2053504;28;20045;-66
2021/04/15 02:03:18;;;;;;;3.95;3.13;;;;;;;18.87;42.85;100009.34;2047156;28;20027;-66
2021/04/15 02:04:24;;;;;;;4.28;3.42;;;;;;;18.87;42.88;100014.81;2053528;28;20550;-66
2021/04/15 02:05:31;;;;;;;3.78;3.38;;;;;;;18.87;42.90;100014.81;2053995;28;20481;-66
2021/04/15 02:06:35;;;;;;;3.85;3.10;;;;;;;18.87;42.93;100014.81;2054903;28;20022;-66
2021/04/15 02:07:42;;;;;;;4.50;3.60;;;;;;;18.85;42.87;100006.75;2056052;28;20030;-66
2021/04/15 02:12:40;;;;;;;4.35;3.33;;;;;;;18.78;42.96;100011.94;2050524;28;20039;-66
2021/04/15 02:13:44;;;;;;;3.83;2.85;;;;;;;18.80;42.81;100015.38;2055359;28;20026;-66
2021/04/15 02:14:48;;;;;;;3.97;3.20;;;;;;;18.80;42.94;100009.94;2055786;28;20022;-66
2021/04/15 02:15:56;;;;;;;3.97;3.28;;;;;;;18.81;43.04;100016.25;2055200;28;20061;-66
2021/04/15 02:17:00;;;;;;;4.32;3.30;;;;;;;18.81;42.93;100011.66;2056627;28;20039;-66
2021/04/15 02:18:08;;;;;;;3.78;2.95;;;;;;;18.85;42.90;100010.34;2055917;28;20090;-66
2021/04/15 02:19:33;;;;;;;4.45;3.60;;;;;;;18.85;42.96;100010.34;2055834;28;20081;-66
2021/04/15 02:20:39;;;;;;;5.25;3.50;;;;;;;18.84;42.97;100010.50;2056368;28;20046;-66
2021/04/15 02:21:45;;;;;;;5.55;3.33;;;;;;;18.85;43.07;100009.47;2049459;28;20110;-66
2021/04/15 02:23:08;;;;;;;4.00;3.20;;;;;;;18.83;42.86;100009.63;2052640;28;20033;-66
2021/04/15 02:24:10;;;;;;;4.70;3.42;;;;;;;18.84;43.06;100005.91;2055495;28;20023;-66
2021/04/15 02:25:13;;;;;;;;;;;;;;;18.81;42.98;100006.22;2057050;28;20126;-66
2021/04/15 02:26:20;;;;;;;4.63;3.38;;;;;;;18.81;42.94;100005.31;2061840;28;19968;-65
2021/04/15 02:27:42;;;;;;;4.05;2.83;;;;;;;18.82;42.92;100005.19;2061926;28;20037;-66
2021/04/15 02:28:46;;;;;;;5.10;2.90;;;;;;;18.84;42.83;99999.59;2048626;29;20506;-66
2021/04/15 02:29:53;;;;;;;4.38;3.15;;;;;;;18.87;42.84;100006.59;2053034;28;20057;-66
2021/04/15 02:31:12;;;;;;;5.70;3.30;;;;;;;18.87;42.93;100009.34;2055943;28;20031;-66
2021/04/15 02:32:36;;;;;;;4.03;3.10;;;;;;;18.84;42.85;100003.16;2053361;28;20031;-66
2021/04/15 02:33:47;;;;;;;4.10;3.25;;;;;;;18.84;42.97;100002.31;2055702;28;20464;-65
2021/04/15 02:35:02;;;;;;;4.10;3.15;;;;;;;18.89;42.78;100007.28;2056061;28;20374;-66
2021/04/15 02:36:05;;;;;;;5.03;3.22;;;;;;;18.89;42.91;100007.28;2056039;28;20128;-66
2021/04/15 02:37:16;;;;;;;3.50;2.85;;;;;;;18.90;42.86;100009.03;2048558;28;20031;-65
2021/04/15 02:38:21;;;;;;;4.38;3.38;;;;;;;18.89;42.83;100007.28;2048989;28;20023;-66
2021/04/15 02:39:51;;;;;;;4.70;3.28;;;;;;;18.87;42.72;100003.88;2049738;28;20039;-66
2021/04/15 02:40:55;;;;;;;3.72;2.85;;;;;;;18.88;42.75;100005.59;2054730;28;20697;-65
2021/04/15 02:41:56;;;;;;;4.40;3.03;;;;;;;18.90;42.77;100009.88;2053961;28;20197;-66
2021/04/15 02:43:06;;;;;;;4.07;3.10;;;;;;;18.91;42.88;100005.28;2052822;28;20041;-66
2021/04/15 02:44:17;;;;;;;3.78;2.80;;;;;;;18.91;42.90;100008.00;2048457;28;20038;-66
2021/04/15 02:45:34;;;;;;;4.38;3.13;;;;;;;18.89;42.90;100018.22;2049205;28;20035;-66
2021/04/15 02:46:39;;;;;;;3.80;2.92;;;;;;;18.90;42.85;100009.03;2049882;28;20106;-66
2021/04/15 02:47:44;;;;;;;4.60;3.58;;;;;;;18.90;42.85;100009.03;2048566;28;20059;-66
2021/04/15 02:48:49;;;;;;;3.40;2.78;;;;;;;18.89;42.87;100001.84;2048292;28;20342;-66
2021/04/15 02:49:55;;;;;;;5.57;3.13;;;;;;;18.89;42.88;100008.19;2050957;28;20027;-66
2021/04/15 02:51:00;;;;;;;4.75;3.42;;;;;;;18.89;42.98;100012.75;2056159;28;20031;-66
2021/04/15 02:52:09;;;;;;;4.80;3.10;;;;;;;18.90;42.79;100014.50;2053598;28;20042;-66
2021/04/15 02:53:14;;;;;;;3.42;2.97;;;;;;;18.89;42.93;100013.63;2048624;28;20504;-66
2021/04/15 02:54:24;;;;;;;4.40;3.20;;;;;;;18.87;42.91;100010.19;2056234;28;20031;-66
2021/04/15 02:55:28;;;;;;;5.10;3.08;;;;;;;18.88;42.78;100011.06;2054916;28;20026;-66
2021/04/15 02:56:34;;;;;;;5.00;3.10;;;;;;;18.88;42.92;100019.25;2056146;28;20027;-66
2021/04/15 02:57:45;;;;;;;4.15;3.22;;;;;;;18.87;42.91;100015.66;2055228;28;20085;-66
2021/04/15 02:58:50;;;;;;;4.35;3.28;;;;;;;18.87;42.85;100009.34;2056041;28;20027;-66
2021/04/15 02:59:59;;;;;;;4.93;2.90;;;;;;;18.87;42.99;100017.53;2056381;28;20031;-66
2021/04/15 03:01:01;;;;;;;4.80;3.30;;;;;;;18.88;42.98;100017.38;2051601;28;20035;-66
2021/04/15 03:02:06;;;;;;;;;;;;;;;18.82;42.91;100009.78;2058177;28;20532;-66
2021/04/15 03:03:12;;;;;;;4.18;2.88;;;;;;;18.81;42.96;100011.66;2062236;28;20000;-66
2021/04/15 03:04:16;;;;;;;5.28;2.92;;;;;;;18.81;43.01;100008.94;2053166;28;20315;-66
2021/04/15 03:05:21;;;;;;;4.10;3.00;;;;;;;18.83;43.01;100009.63;2053446;28;20413;-66
2021/04/15 03:06:31;;;;;;;3.83;3.30;;;;;;;18.82;42.95;100001.59;2055515;28;20128;-67
2021/04/15 03:07:36;;;;;;;4.50;3.95;;;;;;;18.82;42.97;100007.91;2054239;28;20027;-67
2021/04/15 03:08:39;;;;;;;4.70;3.10;;;;;;;18.81;42.84;100006.22;2055216;28;20431;-67
2021/04/15 03:09:41;;;;;;;4.20;3.10;;;;;;;18.83;42.97;100003.31;2055092;28;20071;-67
2021/04/15 03:10:49;;;;;;;;;;;;;;;18.78;42.79;100001.03;2055283;28;20220;-67
2021/04/15 03:11:54;;;;;;;4.43;3.22;;;;;;;18.78;43.00;100001.03;2054943;28;19937;-67
2021/04/15 03:13:19;;;;;;;4.53;3.15;;;;;;;18.79;42.79;100002.75;2052074;28;20031;-67
2021/04/15 03:14:28;;;;;;;3.63;3.08;;;;;;;18.80;43.02;99998.16;2054800;28;20037;-67
2021/04/15 03:15:32;;;;;;;3.67;2.72;;;;;;;18.83;42.82;99995.97;2055970;28;20026;-66
2021/04/15 03:16:39;;;;;;;4.57;3.30;;;;;;;18.84;42.76;100003.16;2055942;28;20550;-66
2021/04/15 03:17:44;;;;;;;3.88;2.65;;;;;;;18.85;42.90;100002.13;2055885;28;20022;-67
2021/04/15 03:19:03;;;;;;;4.43;3.40;;;;;;;18.87;42.81;100006.59;2055165;28;20121;-66
2021/04/15 03:20:09;;;;;;;5.55;3.50;;;;;;;18.83;42.86;99998.69;2062820;28;20144;-66
2021/04/15 03:21:22;;;;;;;3.90;3.00;;;;;;;18.88;42.77;100000.13;2061357;28;20038;-67
2021/04/15 03:22:39;;;;;;;3.65;2.65;;;;;;;18.87;42.70;100003.88;2051954;28;20022;-67
2021/04/15 03:23:44;;;;;;;3.35;2.38;;;;;;;18.87;42.67;99999.28;2052245;28;20057;-65
2021/04/15 03:24:47;;;;;;;4.38;3.05;;;;;;;18.89;42.86;99999.09;2055525;28;20031;-65
2021/04/15 03:25:51;;;;;;;5.47;3.03;;;;;;;18.90;42.77;99998.09;2055242;28;20023;-65
2021/04/15 03:27:02;;;;;;;3.53;3.00;;;;;;;18.88;42.59;100000.97;2056296;28;20041;-65
2021/04/15 03:28:16;;;;;;;3.75;2.60;;;;;;;18.88;42.56;99998.25;2054010;28;20508;-66
2021/04/15 03:29:28;;;;;;;5.63;2.88;;;;;;;18.89;42.75;99999.09;2054213;28;20042;-65
2021/04/15 03:30:43;;;;;;;3.67;2.83;;;;;;;18.90;42.55;99998.09;2047925;28;20111;-66
2021/04/15 03:31:50;;;;;;;3.95;3.13;;;;;;;18.90;42.61;99998.97;2052477;28;20509;-66
2021/04/15 03:33:06;;;;;;;4.22;2.80;;;;;;;18.92;42.75;100007.03;2054034;28;20070;-66
2021/04/15 03:34:09;;;;;;;4.03;3.15;;;;;;;18.90;42.56;100001.69;2048049;28;20024;-66
2021/04/15 03:35:17;;;;;;;4.32;2.97;;;;;;;18.91;42.53;100002.53;2049023;28;20038;-67
2021/04/15 03:36:33;;;;;;;3.75;2.53;;;;;;;18.93;42.62;100009.56;2049754;28;20500;-65
2021/04/15 03:37:38;;;;;;;5.22;3.20;;;;;;;18.93;42.53;100012.31;2048039;28;20031;-66
2021/04/15 03:38:45;;;;;;;4.65;3.47;;;;;;;18.94;42.58;100016.78;2054691;28;20125;-66
2021/04/15 03:39:46;;;;;;;4.35;3.20;;;;;;;18.97;42.41;100012.88;2055606;28;20026;-66
2021/04/15 03:40:53;;;;;;;6.07;3.42;;;;;;;18.94;42.62;100008.59;2056287;28;20738;-66
2021/04/15 03:41:57;;;;;;;4.38;2.88;;;;;;;18.96;42.51;100012.03;2056062;28;20062;-65
2021/04/15 03:43:11;;;;;;;4.05;3.05;;;;;;;18.96;42.50;100014.75;2055286;28;20030;-65
2021/04/15 03:44:14;;;;;;;3.80;2.53;;;;;;;18.97;42.58;100015.63;2053765;28;20033;-65
2021/04/15 03:45:22;;;;;;;5.30;2.92;;;;;;;18.98;42.52;100009.97;2055521;28;20027;-65
2021/04/15 03:46:42;;;;;;;3.72;2.80;;;;;;;18.97;42.36;100016.47;2056161;28;20022;-65
2021/04/15 03:47:49;;;;;;;4.13;3.15;;;;;;;18.94;42.39;100007.72;2048267;28;20039;-65
2021/04/15 03:48:53;;;;;;;5.07;2.97;;;;;;;18.95;42.62;100009.44;2050546;28;20453;-65
2021/04/15 03:50:09;;;;;;;4.28;3.15;;;;;;;18.93;42.60;100019.66;2048420;28;20030;-65
2021/04/15 03:51:21;;;;;;;3.45;2.78;;;;;;;18.93;42.37;100009.56;2053627;28;20058;-66
2021/04/15 03:52:28;;;;;;;3.67;2.83;;;;;;;18.93;42.59;100009.56;2051003;28;20738;-66
2021/04/15 03:53:39;;;;;;;3.80;2.80;;;;;;;18.91;42.55;100003.41;2049872;28;20506;-66
2021/04/15 03:54:45;;;;;;;3.88;2.67;;;;;;;18.92;42.51;100007.03;2052874;28;20055;-65
2021/04/15 03:55:52;;;;;;;5.07;2.72;;;;;;;18.92;42.51;100007.03;2059097;28;20034;-65
2021/04/15 03:56:58;;;;;;;4.40;3.15;;;;;;;18.92;42.67;100007.03;2057034;28;20406;-65
2021/04/15 03:58:04;;;;;;;3.40;2.55;;;;;;;18.91;42.47;100008.00;2050402;28;20023;-65
2021/04/15 03:59:26;;;;;;;5.53;3.63;;;;;;;18.90;42.57;100004.44;2055255;28;20027;-65
2021/04/15 04:00:34;;;;;;;3.75;2.55;;;;;;;18.89;42.56;100010.03;2049850;28;20075;-66
2021/04/15 04:01:40;;;;;;;5.82;2.95;;;;;;;18.89;42.59;100008.19;2054033;28;20608;-66
2021/04/15 04:02:49;;;;;;;4.93;2.90;;;;;;;18.89;42.63;100001.84;2050240;28;20026;-66
2021/04/15 04:04:07;;;;;;;5.57;2.83;;;;;;;18.89;42.42;100008.19;2049540;28;20033;-65
2021/04/15 04:05:22;;;;;;;3.40;2.58;;;;;;;18.87;42.56;100009.34;2049637;28;20509;-66
2021/04/15 04:06:26;;;;;;;3.42;2.53;;;;;;;18.87;42.53;100010.19;2053220;28;20087;-66
2021/04/15 04:07:33;;;;;;;3.50;2.63;;;;;;;18.88;42.65;100006.44;2051735;28;20667;-66
2021/04/15 04:08:48;;;;;;;6.20;3.08;;;;;;;18.88;42.58;99998.25;2048567;28;20143;-66
2021/04/15 04:09:54;;;;;;;3.33;2.60;;;;;;;18.88;42.59;100000.97;2047711;28;20772;-65
2021/04/15 04:10:56;;;;;;;5.85;3.13;;;;;;;18.87;42.51;100004.72;2052354;28;20042;-66
2021/04/15 04:12:00;;;;;;;4.50;2.97;;;;;;;18.89;42.47;100001.84;2050946;28;20086;-65
2021/04/15 04:13:20;;;;;;;4.00;2.97;;;;;;;18.86;42.58;99997.53;2050952;28;20393;-65
2021/04/15 04:14:35;;;;;;;3.58;2.67;;;;;;;18.85;42.64;100002.13;2053345;28;20469;-66
2021/04/15 04:15:41;;;;;;;4.22;3.00;;;;;;;18.85;42.51;99996.69;2054886;28;20770;-66
2021/04/15 04:16:50;;;;;;;4.07;3.25;;;;;;;18.89;42.71;100001.84;2054688;28;20484;-65
2021/04/15 04:18:09;;;;;;;3.65;3.03;;;;;;;18.90;42.46;100000.84;2054911;28;20086;-64
2021/04/15 04:19:30;;;;;;;3.92;2.88;;;;;;;18.90;42.39;100001.69;2054889;28;20133;-65
2021/04/15 04:20:35;;;;;;;3.78;2.65;;;;;;;18.90;42.61;99998.09;2050104;28;20092;-65
2021/04/15 04:22:10;;;;;;;4.00;2.58;;;;;;;18.90;42.61;100000.84;2053994;28;20030;-66
2021/04/15 04:23:37;;;;;;;5.85;3.05;;;;;;;18.88;42.56;100005.59;2048691;28;20550;-65
2021/04/15 04:25:10;;;;;;;6.72;2.58;;;;;;;18.87;42.80;100003.88;2053891;28;20033;-65
2021/04/15 04:26:35;;;;;;;4.10;2.92;;;;;;;18.86;42.56;100003.00;2053391;28;20030;-66
2021/04/15 04:27:45;;;;;;;3.72;2.30;;;;;;;18.87;42.75;100003.88;2054466;28;20029;-65
2021/04/15 04:29:15;;;;;;;4.10;2.80;;;;;;;18.87;42.73;100006.59;2055453;28;20043;-65
2021/04/15 04:30:27;;;;;;;3.78;2.50;;;;;;;18.87;42.65;100002.00;2050150;28;20031;-65
2021/04/15 04:31:35;;;;;;;4.07;2.50;;;;;;;18.87;42.68;100006.59;2054779;28;20031;-65
2021/04/15 04:32:38;;;;;;;3.97;2.50;;;;;;;18.87;42.67;99999.28;2047474;28;20713;-65
2021/04/15 04:33:43;;;;;;;5.80;2.72;;;;;;;18.87;42.50;100004.72;2052828;28;20038;-65
2021/04/15 04:34:44;;;;;;;3.40;2.70;;;;;;;18.90;42.68;100009.03;2055264;28;20105;-66
2021/04/15 04:35:47;;;;;;;2.88;2.28;;;;;;;18.89;42.53;100007.28;2055407;28;20035;-65
2021/04/15 04:36:51;;;;;;;4.35;2.13;;;;;;;18.90;42.58;100000.84;2054115;28;20077;-65
2021/04/15 04:37:54;;;;;;;3.88;2.85;;;;;;;18.91;42.50;100005.28;2054375;28;20031;-65
2021/04/15 04:38:57;;;;;;;5.18;2.63;;;;;;;18.92;42.56;100004.28;2054659;28;20522;-65
2021/04/15 04:40:00;;;;;;;4.43;2.60;;;;;;;18.92;42.61;100005.13;2055237;28;20026;-65
2021/04/15 04:41:09;;;;;;;3.88;2.90;;;;;;;18.91;42.46;100010.75;2055193;28;20104;-65
2021/04/15 04:42:27;;;;;;;2.65;2.40;;;;;;;18.89;42.67;100007.28;2052795;28;20035;-65
2021/04/15 04:43:43;;;;;;;4.07;2.33;;;;;;;18.89;42.48;100004.56;2054838;28;20027;-65
2021/04/15 04:44:51;;;;;;;3.85;2.88;;;;;;;18.88;42.46;100013.78;2054070;28;20513;-65
2021/04/15 04:45:58;;;;;;;3.80;2.88;;;;;;;18.87;42.63;100014.81;2055493;28;20034;-65
2021/04/15 04:47:09;;;;;;;4.20;2.42;;;;;;;18.84;42.59;100019.56;2053114;28;20510;-65
2021/04/15 04:48:28;;;;;;;4.18;2.33;;;;;;;18.87;42.57;100014.81;2055503;28;20022;-66
2021/04/15 04:49:32;;;;;;;3.97;2.72;;;;;;;18.86;42.63;100022.13;2046963;28;20504;-65
2021/04/15 04:51:01;;;;;;;2.75;2.13;;;;;;;18.85;42.66;100024.00;2054016;28;20041;-66
2021/04/15 04:52:09;;;;;;;3.40;2.33;;;;;;;18.83;42.53;100031.47;2052016;28;20026;-65
2021/04/15 04:53:22;;;;;;;3.85;2.60;;;;;;;18.83;42.57;100030.63;2047503;28;20046;-65
2021/04/15 04:54:23;;;;;;;3.95;2.50;;;;;;;18.83;42.68;100020.53;2047443;28;20166;-65
2021/04/15 04:55:33;;;;;;;3.28;2.65;;;;;;;18.83;42.70;100020.53;2050562;28;20030;-66
2021/04/15 04:56:39;;;;;;;3.75;2.75;;;;;;;18.81;42.53;100030.78;2055477;28;20670;-66
2021/04/15 04:57:51;;;;;;;3.92;2.60;;;;;;;18.82;42.71;100027.03;2054508;28;20027;-66
2021/04/15 04:58:58;;;;;;;3.13;2.33;;;;;;;18.82;42.65;100032.50;2054803;28;21292;-66
2021/04/15 05:00:25;;;;;;;5.47;2.47;;;;;;;18.80;42.70;100031.78;2055304;28;20071;-66
2021/04/15 05:01:25;;;;;;;3.83;2.53;;;;;;;18.81;42.59;100033.50;2045614;28;20043;-65
2021/04/15 05:02:26;;;;;;;3.50;2.40;;;;;;;18.85;42.52;100037.66;2051236;28;20033;-65
2021/04/15 05:03:30;;;;;;;5.93;2.57;;;;;;;18.80;42.61;100031.78;2054530;28;20042;-64
2021/04/15 05:04:33;;;;;;;2.92;2.15;;;;;;;18.83;42.62;100027.88;2050025;28;20031;-64
2021/04/15 05:05:34;;;;;;;4.18;2.50;;;;;;;18.83;42.45;100030.63;2054134;28;20085;-64
2021/04/15 05:07:01;;;;;;;3.77;2.13;;;;;;;18.82;42.44;100034.38;2051055;28;20093;-65
2021/04/15 05:08:04;;;;;;;3.88;2.60;;;;;;;18.84;42.49;100038.66;2049510;28;20074;-64
2021/04/15 05:09:07;;;;;;;4.20;2.33;;;;;;;18.84;42.35;100038.66;2049994;28;20067;-64
2021/04/15 05:10:14;;;;;;;3.58;2.38;;;;;;;18.87;42.38;100036.66;2047903;28;20641;-64
2021/04/15 05:11:15;;;;;;;3.65;1.90;;;;;;;18.88;42.37;100036.47;2048782;28;20034;-64
2021/04/15 05:12:20;;;;;;;3.10;2.13;;;;;;;18.91;42.19;100032.59;2049395;28;20035;-65
2021/04/15 05:13:27;;;;;;;5.85;2.20;;;;;;;18.92;42.29;100039.78;2048576;28;20054;-64
2021/04/15 05:14:29;;;;;;;2.92;2.22;;;;;;;18.94;42.21;100044.09;2049607;28;20034;-65
2021/04/15 05:15:30;;;;;;;3.25;2.28;;;;;;;18.95;42.24;100039.47;2050952;28;20038;-65
2021/04/15 05:16:56;;;;;;;3.30;2.15;;;;;;;18.93;42.14;100044.22;2047939;28;20046;-65
2021/04/15 05:17:56;;;;;;;6.20;2.35;;;;;;;18.94;42.26;100048.69;2050694;28;20085;-65
2021/04/15 05:18:57;;;;;;;3.00;2.40;;;;;;;18.93;42.30;100046.97;2050332;28;20027;-65
2021/04/15 05:20:12;;;;;;;7.77;2.70;;;;;;;18.94;42.37;100054.16;2051557;28;20037;-65
2021/04/15 05:21:14;;;;;;;4.05;2.53;;;;;;;18.96;42.24;100046.66;2049220;28;20567;-65
2021/04/15 05:22:20;;;;;;;;;;;;;;;18.91;42.48;100051.72;2052511;28;20057;-65
2021/04/15 05:23:33;;;;;;;3.80;2.30;;;;;;;18.93;42.42;100052.44;2050354;28;19914;-65